createdAt,value
2018-03-27T00:00:17.275Z,26.10
2018-03-27T00:01:17.288Z,28.20
2018-03-27T00:02:17.287Z,30.50
2018-03-27T00:03:17.292Z,27.60
2018-03-27T00:04:17.301Z,32.00
2018-03-27T00:05:17.368Z,28.60
2018-03-27T00:06:17.309Z,21.40
2018-03-27T00:07:17.317Z,20.60
2018-03-27T00:08:17.314Z,20.00
2018-03-27T00:09:17.323Z,21.30
2018-03-27T00:10:17.327Z,20.20
2018-03-27T00:11:17.336Z,20.00
2018-03-27T00:12:17.342Z,20.90
2018-03-27T00:13:17.347Z,21.30
2018-03-27T00:14:17.347Z,20.30
2018-03-27T00:15:17.355Z,25.80
2018-03-27T00:16:17.354Z,24.30
2018-03-27T00:17:17.360Z,22.70
2018-03-27T00:18:17.369Z,22.40
2018-03-27T00:19:17.374Z,20.20
2018-03-27T00:20:17.379Z,19.70
2018-03-27T00:21:17.382Z,20.00
2018-03-27T00:22:17.383Z,23.90
2018-03-27T00:23:17.388Z,24.90
2018-03-27T00:24:17.398Z,23.10
2018-03-27T00:25:17.397Z,22.60
2018-03-27T00:26:17.404Z,21.30
2018-03-27T00:27:17.408Z,20.20
2018-03-27T00:28:17.416Z,17.40
2018-03-27T00:29:17.421Z,20.90
2018-03-27T00:30:17.426Z,20.60
2018-03-27T00:31:17.432Z,25.20
2018-03-27T00:32:17.437Z,21.70
2018-03-27T00:33:17.436Z,19.80
2018-03-27T00:34:17.440Z,21.00
2018-03-27T00:35:17.444Z,20.40
2018-03-27T00:36:17.448Z,22.30
2018-03-27T00:37:17.460Z,21.10
2018-03-27T00:38:17.467Z,22.60
2018-03-27T00:39:17.470Z,21.40
2018-03-27T00:40:17.467Z,21.80
2018-03-27T00:41:17.472Z,22.90
2018-03-27T00:42:17.480Z,22.80
2018-03-27T00:43:17.487Z,21.80
2018-03-27T00:44:17.487Z,23.70
2018-03-27T00:45:17.497Z,30.20
2018-03-27T00:46:17.498Z,42.80
2018-03-27T00:47:17.507Z,38.00
2018-03-27T00:48:17.506Z,39.30
2018-03-27T00:49:17.517Z,38.70
2018-03-27T00:50:17.521Z,41.00
2018-03-27T00:51:17.527Z,41.20
2018-03-27T00:52:17.525Z,47.60
2018-03-27T00:53:17.537Z,41.70
2018-03-27T00:54:17.535Z,40.80
2018-03-27T00:55:17.546Z,39.50
2018-03-27T00:56:17.546Z,36.20
2018-03-27T00:57:17.549Z,37.20
2018-03-27T00:58:17.554Z,37.70
2018-03-27T00:59:17.565Z,39.00
2018-03-27T01:00:17.564Z,34.70
2018-03-27T01:01:17.574Z,30.20
2018-03-27T01:02:17.574Z,28.60
2018-03-27T01:03:17.583Z,29.60
2018-03-27T01:04:17.588Z,26.70
2018-03-27T01:05:17.588Z,27.30
2018-03-27T01:06:17.599Z,26.30
2018-03-27T01:07:17.597Z,26.30
2018-03-27T01:08:17.606Z,27.60
2018-03-27T01:09:17.607Z,29.80
2018-03-27T01:10:17.611Z,28.20
2018-03-27T01:11:17.621Z,26.80
2018-03-27T01:12:17.621Z,26.30
2018-03-27T01:13:17.626Z,25.40
2018-03-27T01:14:17.637Z,25.90
2018-03-27T01:15:17.643Z,24.80
2018-03-27T01:16:17.641Z,27.20
2018-03-27T01:17:17.651Z,27.50
2018-03-27T01:18:17.651Z,27.80
2018-03-27T01:19:17.661Z,24.40
2018-03-27T01:20:17.661Z,26.60
2018-03-27T01:21:17.671Z,23.30
2018-03-27T01:22:17.672Z,26.90
2018-03-27T01:23:17.676Z,26.40
2018-03-27T01:24:17.682Z,25.50
2018-03-27T01:25:17.691Z,25.80
2018-03-27T01:26:17.695Z,36.20
2018-03-27T01:27:17.695Z,35.60
2018-03-27T01:28:17.705Z,36.00
2018-03-27T01:29:17.704Z,35.50
2018-03-27T01:30:17.713Z,39.60
2018-03-27T01:31:17.724Z,37.80
2018-03-27T01:32:17.728Z,34.90
2018-03-27T01:33:17.729Z,39.60
2018-03-27T01:34:17.741Z,38.50
2018-03-27T01:35:17.740Z,38.60
2018-03-27T01:36:17.744Z,38.70
2018-03-27T01:37:17.754Z,34.60
2018-03-27T01:38:17.756Z,40.00
2018-03-27T01:39:17.755Z,36.60
2018-03-27T01:40:17.766Z,37.10
2018-03-27T01:41:17.764Z,38.00
2018-03-27T01:42:17.775Z,31.00
2018-03-27T01:43:17.781Z,37.40
2018-03-27T01:44:17.786Z,36.40
2018-03-27T01:45:17.790Z,34.30
2018-03-27T01:46:17.788Z,34.70
2018-03-27T01:47:17.799Z,30.50
2018-03-27T01:48:17.803Z,31.90
2018-03-27T01:49:17.809Z,31.70
2018-03-27T01:50:17.813Z,32.40
2018-03-27T01:51:17.818Z,32.10
2018-03-27T01:52:17.822Z,32.00
2018-03-27T01:53:17.828Z,33.80
2018-03-27T01:54:17.922Z,30.10
2018-03-27T01:55:17.833Z,28.00
2018-03-27T01:56:17.836Z,28.10
2018-03-27T01:57:17.846Z,27.00
2018-03-27T01:58:17.850Z,25.90
2018-03-27T01:59:17.850Z,30.20
2018-03-27T02:00:17.854Z,28.70
2018-03-27T02:01:17.865Z,31.50
2018-03-27T02:02:17.865Z,31.60
2018-03-27T02:03:17.873Z,35.20
2018-03-27T02:04:17.873Z,33.50
2018-03-27T02:05:17.883Z,30.50
2018-03-27T02:06:17.885Z,31.60
2018-03-27T02:07:17.886Z,29.60
2018-03-27T02:08:17.893Z,29.00
2018-03-27T02:09:17.900Z,28.80
2018-03-27T02:10:17.911Z,26.20
2018-03-27T02:11:17.908Z,28.00
2018-03-27T02:12:17.912Z,27.50
2018-03-27T02:13:17.920Z,24.30
2018-03-27T02:14:17.916Z,24.40
2018-03-27T02:15:17.920Z,24.60
2018-03-27T02:16:17.930Z,28.10
2018-03-27T02:17:17.936Z,26.50
2018-03-27T02:18:17.934Z,25.80
2018-03-27T02:19:17.944Z,25.90
2018-03-27T02:20:17.949Z,23.20
2018-03-27T02:21:17.953Z,22.00
2018-03-27T02:22:17.956Z,23.00
2018-03-27T02:23:17.962Z,22.80
2018-03-27T02:24:17.969Z,27.20
2018-03-27T02:25:17.964Z,26.60
2018-03-27T02:26:17.976Z,24.70
2018-03-27T02:27:17.980Z,23.90
2018-03-27T02:28:17.983Z,20.30
2018-03-27T02:29:17.983Z,24.90
2018-03-27T02:30:17.987Z,25.50
2018-03-27T02:31:17.992Z,24.90
2018-03-27T02:32:17.995Z,32.90
2018-03-27T02:33:18.001Z,30.90
2018-03-27T02:34:18.005Z,26.40
2018-03-27T02:35:18.015Z,26.30
2018-03-27T02:36:18.026Z,26.90
2018-03-27T02:37:18.019Z,32.10
2018-03-27T02:38:18.027Z,35.70
2018-03-27T02:39:18.028Z,36.80
2018-03-27T02:40:18.035Z,32.40
2018-03-27T02:41:18.043Z,21.80
2018-03-27T02:42:18.045Z,22.10
2018-03-27T02:43:18.045Z,22.70
2018-03-27T02:44:18.054Z,23.20
2018-03-27T02:45:18.053Z,25.10
2018-03-27T02:46:18.064Z,22.50
2018-03-27T02:47:18.073Z,24.80
2018-03-27T02:48:18.072Z,22.20
2018-03-27T02:49:18.073Z,21.70
2018-03-27T02:50:18.075Z,22.30
2018-03-27T02:51:18.080Z,20.10
2018-03-27T02:52:18.095Z,17.80
2018-03-27T02:53:18.099Z,16.60
2018-03-27T02:54:18.098Z,17.60
2018-03-27T02:55:18.108Z,14.10
2018-03-27T02:56:18.100Z,15.90
2018-03-27T02:57:18.110Z,16.40
2018-03-27T02:58:18.118Z,16.00
2018-03-27T02:59:18.112Z,15.90
2018-03-27T03:00:18.128Z,16.00
2018-03-27T03:01:18.124Z,13.60
2018-03-27T03:02:18.135Z,12.30
2018-03-27T03:03:18.140Z,12.40
2018-03-27T03:04:18.134Z,15.50
2018-03-27T03:05:18.138Z,13.00
2018-03-27T03:06:18.144Z,14.60
2018-03-27T03:07:18.160Z,14.30
2018-03-27T03:08:18.156Z,11.60
2018-03-27T03:09:18.159Z,14.10
2018-03-27T03:10:18.165Z,12.10
2018-03-27T03:11:18.169Z,12.30
2018-03-27T03:12:18.172Z,15.60
2018-03-27T03:13:18.179Z,13.90
2018-03-27T03:14:18.180Z,16.90
2018-03-27T03:15:18.179Z,16.00
2018-03-27T03:16:18.183Z,14.00
2018-03-27T03:17:18.192Z,13.20
2018-03-27T03:18:18.191Z,13.50
2018-03-27T03:19:18.201Z,16.10
2018-03-27T03:20:18.200Z,16.20
2018-03-27T03:21:18.207Z,15.90
2018-03-27T03:22:18.213Z,17.80
2018-03-27T03:23:18.211Z,14.90
2018-03-27T03:24:18.220Z,17.20
2018-03-27T03:25:18.218Z,15.50
2018-03-27T03:26:18.222Z,16.10
2018-03-27T03:27:18.233Z,14.30
2018-03-27T03:28:18.277Z,16.70
2018-03-27T03:29:18.240Z,16.80
2018-03-27T03:30:18.253Z,15.30
2018-03-27T03:31:18.249Z,15.70
2018-03-27T03:32:18.250Z,15.00
2018-03-27T03:33:18.257Z,16.60
2018-03-27T03:34:18.254Z,13.70
2018-03-27T03:35:18.264Z,11.60
2018-03-27T03:36:18.267Z,11.70
2018-03-27T03:37:18.272Z,12.30
2018-03-27T03:38:18.271Z,11.80
2018-03-27T03:39:18.274Z,11.70
2018-03-27T03:40:18.284Z,15.00
2018-03-27T03:41:18.282Z,11.40
2018-03-27T03:42:18.291Z,12.50
2018-03-27T03:43:18.289Z,11.80
2018-03-27T03:44:18.293Z,13.60
2018-03-27T03:45:18.299Z,13.20
2018-03-27T03:46:18.308Z,12.60
2018-03-27T03:47:18.307Z,13.20
2018-03-27T03:48:18.309Z,13.10
2018-03-27T03:49:18.312Z,12.10
2018-03-27T03:50:18.319Z,12.20
2018-03-27T03:51:18.330Z,12.50
2018-03-27T03:52:18.332Z,11.10
2018-03-27T03:53:18.333Z,11.40
2018-03-27T03:54:18.336Z,12.00
2018-03-27T03:55:18.340Z,13.00
2018-03-27T03:56:18.354Z,13.90
2018-03-27T03:57:18.352Z,11.90
2018-03-27T03:58:18.352Z,13.10
2018-03-27T03:59:18.355Z,14.30
2018-03-27T04:00:18.362Z,12.60
2018-03-27T04:01:18.369Z,15.10
2018-03-27T04:02:18.373Z,14.20
2018-03-27T04:03:18.378Z,13.30
2018-03-27T04:04:18.381Z,14.60
2018-03-27T04:05:18.379Z,12.20
2018-03-27T04:06:18.383Z,13.60
2018-03-27T04:07:18.395Z,14.50
2018-03-27T04:08:18.396Z,15.10
2018-03-27T04:09:18.403Z,11.90
2018-03-27T04:10:18.400Z,13.50
2018-03-27T04:11:18.430Z,15.30
2018-03-27T04:12:18.410Z,12.80
2018-03-27T04:13:18.416Z,13.10
2018-03-27T04:14:18.425Z,14.00
2018-03-27T04:15:18.425Z,13.00
2018-03-27T04:16:18.429Z,13.30
2018-03-27T04:17:18.432Z,13.90
2018-03-27T04:18:18.433Z,11.40
2018-03-27T04:19:18.436Z,14.20
2018-03-27T04:20:18.444Z,13.30
2018-03-27T04:21:18.444Z,14.30
2018-03-27T04:22:18.456Z,14.10
2018-03-27T04:23:18.454Z,13.70
2018-03-27T04:24:18.456Z,14.20
2018-03-27T04:25:18.462Z,11.70
2018-03-27T04:26:18.470Z,12.50
2018-03-27T04:27:18.470Z,13.40
2018-03-27T04:28:18.478Z,13.30
2018-03-27T04:29:18.475Z,13.30
2018-03-27T04:30:18.481Z,15.70
2018-03-27T04:31:18.485Z,14.40
2018-03-27T04:32:18.493Z,13.00
2018-03-27T04:33:18.499Z,14.10
2018-03-27T04:34:18.502Z,15.90
2018-03-27T04:35:18.501Z,15.40
2018-03-27T04:36:18.503Z,15.30
2018-03-27T04:37:18.513Z,13.60
2018-03-27T04:38:18.516Z,12.50
2018-03-27T04:39:18.516Z,16.70
2018-03-27T04:40:18.527Z,13.30
2018-03-27T04:41:18.528Z,15.40
2018-03-27T04:42:18.531Z,20.20
2018-03-27T04:43:18.536Z,14.40
2018-03-27T04:44:18.533Z,13.50
2018-03-27T04:45:18.543Z,16.20
2018-03-27T04:46:18.542Z,17.30
2018-03-27T04:47:18.557Z,13.50
2018-03-27T04:48:18.549Z,11.90
2018-03-27T04:49:18.551Z,14.90
2018-03-27T04:50:18.557Z,12.30
2018-03-27T04:51:18.565Z,13.70
2018-03-27T04:52:18.562Z,12.60
2018-03-27T04:53:18.572Z,15.40
2018-03-27T04:54:18.632Z,12.50
2018-03-27T04:55:18.573Z,14.00
2018-03-27T04:56:18.578Z,13.80
2018-03-27T04:57:18.586Z,14.20
2018-03-27T04:58:18.586Z,15.20
2018-03-27T04:59:18.593Z,12.70
2018-03-27T05:00:18.604Z,10.80
2018-03-27T05:01:18.593Z,12.20
2018-03-27T05:02:18.614Z,11.00
2018-03-27T05:03:18.602Z,13.90
2018-03-27T05:04:18.610Z,12.10
2018-03-27T05:05:18.615Z,12.80
2018-03-27T05:06:18.618Z,12.60
2018-03-27T05:07:18.621Z,13.40
2018-03-27T05:08:18.618Z,10.30
2018-03-27T05:09:18.627Z,12.70
2018-03-27T05:10:18.631Z,16.60
2018-03-27T05:11:18.629Z,12.60
2018-03-27T05:12:18.637Z,13.90
2018-03-27T05:13:18.640Z,13.20
2018-03-27T05:14:18.639Z,14.70
2018-03-27T05:15:18.649Z,13.00
2018-03-27T05:16:18.647Z,15.50
2018-03-27T05:17:18.657Z,14.20
2018-03-27T05:18:18.654Z,14.50
2018-03-27T05:19:18.659Z,17.30
2018-03-27T05:20:18.660Z,14.00
2018-03-27T05:21:18.724Z,14.90
2018-03-27T05:22:18.672Z,16.30
2018-03-27T05:23:18.675Z,15.70
2018-03-27T05:24:18.680Z,15.30
2018-03-27T05:25:18.682Z,15.10
2018-03-27T05:26:18.689Z,15.40
2018-03-27T05:27:18.691Z,16.90
2018-03-27T05:28:18.691Z,15.60
2018-03-27T05:29:18.696Z,15.00
2018-03-27T05:30:18.701Z,13.20
2018-03-27T05:31:18.704Z,14.50
2018-03-27T05:32:18.700Z,16.60
2018-03-27T05:33:18.706Z,16.80
2018-03-27T05:34:18.709Z,15.30
2018-03-27T05:35:18.712Z,17.50
2018-03-27T05:36:18.714Z,17.40
2018-03-27T05:37:18.722Z,18.80
2018-03-27T05:38:18.721Z,17.30
2018-03-27T05:39:18.724Z,15.00
2018-03-27T05:40:18.731Z,17.00
2018-03-27T05:41:18.738Z,16.20
2018-03-27T05:42:18.741Z,18.40
2018-03-27T05:43:18.739Z,15.80
2018-03-27T05:44:18.751Z,18.80
2018-03-27T05:45:18.745Z,16.80
2018-03-27T05:46:18.754Z,16.10
2018-03-27T05:47:18.756Z,15.80
2018-03-27T05:48:18.758Z,18.20
2018-03-27T05:49:18.756Z,19.60
2018-03-27T05:50:18.774Z,15.50
2018-03-27T05:51:18.764Z,18.50
2018-03-27T05:52:18.773Z,15.70
2018-03-27T05:53:18.773Z,17.80
2018-03-27T05:54:18.774Z,16.30
2018-03-27T05:55:18.778Z,17.60
2018-03-27T05:56:18.784Z,17.00
2018-03-27T05:57:18.789Z,19.20
2018-03-27T05:58:18.792Z,16.90
2018-03-27T05:59:18.796Z,17.60
2018-03-27T06:00:18.797Z,16.10
2018-03-27T06:01:18.805Z,16.50
2018-03-27T06:02:18.805Z,17.10
2018-03-27T06:03:18.808Z,19.00
2018-03-27T06:04:18.812Z,18.60
2018-03-27T06:05:18.813Z,17.40
2018-03-27T06:06:18.820Z,20.80
2018-03-27T06:07:18.824Z,17.80
2018-03-27T06:08:18.827Z,20.70
2018-03-27T06:09:18.826Z,18.90
2018-03-27T06:10:18.830Z,20.90
2018-03-27T06:11:18.892Z,17.40
2018-03-27T06:12:18.837Z,17.40
2018-03-27T06:13:18.854Z,17.10
2018-03-27T06:14:18.850Z,20.90
2018-03-27T06:15:18.853Z,17.80
2018-03-27T06:16:18.860Z,17.40
2018-03-27T06:17:18.858Z,16.00
2018-03-27T06:18:18.863Z,13.70
2018-03-27T06:19:18.867Z,16.70
2018-03-27T06:20:18.869Z,15.80
2018-03-27T06:21:18.874Z,17.30
2018-03-27T06:22:18.874Z,16.30
2018-03-27T06:23:18.884Z,16.50
2018-03-27T06:24:18.879Z,17.60
2018-03-27T06:25:18.891Z,15.10
2018-03-27T06:26:18.893Z,18.80
2018-03-27T06:27:18.919Z,17.10
2018-03-27T06:28:18.895Z,16.90
2018-03-27T06:29:18.901Z,17.00
2018-03-27T06:30:18.904Z,15.30
2018-03-27T06:31:18.914Z,14.20
2018-03-27T06:32:18.909Z,17.00
2018-03-27T06:33:18.917Z,18.50
2018-03-27T06:34:18.921Z,15.80
2018-03-27T06:35:18.969Z,17.10
2018-03-27T06:36:18.929Z,14.00
2018-03-27T06:37:18.925Z,16.40
2018-03-27T06:38:18.936Z,16.50
2018-03-27T06:39:18.942Z,16.60
2018-03-27T06:40:18.940Z,15.50
2018-03-27T06:41:18.946Z,20.70
2018-03-27T06:42:19.006Z,19.20
2018-03-27T06:43:18.954Z,18.80
2018-03-27T06:44:18.957Z,17.20
2018-03-27T06:45:18.954Z,16.10
2018-03-27T06:46:18.964Z,18.30
2018-03-27T06:47:18.961Z,17.50
2018-03-27T06:48:18.970Z,16.70
2018-03-27T06:49:18.978Z,17.00
2018-03-27T06:50:18.972Z,18.50
2018-03-27T06:51:18.981Z,16.70
2018-03-27T06:52:18.979Z,17.80
2018-03-27T06:53:18.983Z,16.60
2018-03-27T06:54:18.987Z,17.70
2018-03-27T06:55:19.001Z,15.20
2018-03-27T06:56:18.998Z,16.90
2018-03-27T06:57:18.998Z,15.40
2018-03-27T06:58:19.007Z,17.90
2018-03-27T06:59:19.011Z,15.10
2018-03-27T07:00:19.007Z,17.40
2018-03-27T07:01:19.012Z,15.10
2018-03-27T07:02:19.045Z,16.90
2018-03-27T07:03:19.020Z,17.20
2018-03-27T07:04:19.023Z,15.20
2018-03-27T07:05:19.117Z,17.10
2018-03-27T07:06:19.078Z,17.50
2018-03-27T07:07:19.035Z,16.40
2018-03-27T07:08:19.038Z,16.70
2018-03-27T07:09:19.048Z,15.10
2018-03-27T07:10:19.051Z,16.50
2018-03-27T07:11:19.090Z,16.40
2018-03-27T07:12:19.085Z,16.40
2018-03-27T07:13:19.095Z,18.00
2018-03-27T07:14:19.070Z,16.70
2018-03-27T07:15:19.098Z,15.50
2018-03-27T07:16:19.070Z,13.90
2018-03-27T07:17:19.076Z,14.90
2018-03-27T07:18:19.078Z,15.70
2018-03-27T07:19:19.088Z,14.90
2018-03-27T07:20:19.097Z,15.80
2018-03-27T07:21:19.113Z,16.90
2018-03-27T07:22:19.094Z,15.10
2018-03-27T07:23:19.098Z,15.70
2018-03-27T07:24:19.102Z,17.00
2018-03-27T07:25:19.112Z,17.40
2018-03-27T07:26:19.110Z,16.10
2018-03-27T07:27:19.119Z,15.40
2018-03-27T07:28:19.118Z,17.70
2018-03-27T07:29:19.122Z,16.80
2018-03-27T07:30:19.133Z,16.40
2018-03-27T07:31:19.148Z,20.00
2018-03-27T07:32:19.134Z,18.10
2018-03-27T07:33:19.144Z,17.30
2018-03-27T07:34:19.149Z,14.40
2018-03-27T07:35:19.149Z,16.00
2018-03-27T07:36:19.151Z,15.00
2018-03-27T07:37:19.165Z,18.90
2018-03-27T07:38:19.171Z,18.10
2018-03-27T07:39:19.173Z,18.70
2018-03-27T07:40:19.175Z,17.60
2018-03-27T07:41:19.174Z,18.60
2018-03-27T07:42:19.179Z,18.00
2018-03-27T07:43:19.189Z,14.20
2018-03-27T07:44:19.191Z,15.40
2018-03-27T07:45:19.199Z,16.50
2018-03-27T07:46:19.200Z,18.60
2018-03-27T07:47:19.202Z,15.80
2018-03-27T07:48:19.207Z,17.00
2018-03-27T07:49:19.211Z,15.70
2018-03-27T07:50:19.215Z,16.10
2018-03-27T07:51:19.231Z,15.20
2018-03-27T07:52:19.223Z,18.30
2018-03-27T07:53:19.227Z,16.50
2018-03-27T07:54:19.238Z,16.20
2018-03-27T07:55:19.240Z,16.70
2018-03-27T07:56:19.247Z,17.60
2018-03-27T07:57:19.246Z,18.70
2018-03-27T07:58:19.297Z,17.30
2018-03-27T07:59:19.257Z,16.40
2018-03-27T08:00:19.261Z,17.60
2018-03-27T08:01:19.266Z,17.70
2018-03-27T08:02:19.271Z,16.20
2018-03-27T08:03:19.277Z,18.50
2018-03-27T08:04:19.280Z,14.20
2018-03-27T08:05:19.288Z,18.20
2018-03-27T08:06:19.297Z,17.80
2018-03-27T08:07:19.301Z,16.90
2018-03-27T08:08:19.306Z,16.70
2018-03-27T08:09:19.305Z,16.20
2018-03-27T08:10:19.310Z,15.00
2018-03-27T08:11:19.331Z,16.80
2018-03-27T08:12:19.323Z,16.80
2018-03-27T08:13:19.332Z,15.10
2018-03-27T08:14:19.337Z,16.30
2018-03-27T08:15:19.353Z,13.70
2018-03-27T08:16:19.348Z,14.50
2018-03-27T08:17:19.350Z,16.30
2018-03-27T08:18:19.353Z,16.20
2018-03-27T08:19:19.362Z,16.60
2018-03-27T08:20:19.362Z,20.80
2018-03-27T08:21:19.366Z,17.60
2018-03-27T08:22:19.377Z,18.50
2018-03-27T08:23:19.380Z,16.50
2018-03-27T08:24:19.431Z,16.70
2018-03-27T08:25:19.387Z,17.40
2018-03-27T08:26:19.400Z,15.80
2018-03-27T08:27:19.402Z,17.00
2018-03-27T08:28:19.408Z,15.40
2018-03-27T08:29:19.473Z,16.10
2018-03-27T08:30:19.422Z,16.90
2018-03-27T08:31:19.431Z,18.90
2018-03-27T08:32:19.430Z,14.80
2018-03-27T08:33:19.436Z,18.90
2018-03-27T08:34:19.439Z,19.00
2018-03-27T08:35:19.441Z,18.80
2018-03-27T08:36:19.527Z,16.60
2018-03-27T08:37:19.456Z,16.40
2018-03-27T08:38:19.460Z,16.00
2018-03-27T08:39:19.461Z,16.60
2018-03-27T08:40:19.474Z,17.90
2018-03-27T08:41:19.475Z,16.90
2018-03-27T08:42:19.482Z,17.50
2018-03-27T08:43:19.490Z,18.50
2018-03-27T08:44:19.551Z,18.30
2018-03-27T08:45:19.490Z,17.10
2018-03-27T08:46:19.501Z,18.90
2018-03-27T08:47:19.501Z,20.20
2018-03-27T08:48:19.510Z,16.10
2018-03-27T08:49:19.516Z,19.90
2018-03-27T08:50:19.522Z,22.10
2018-03-27T08:51:19.523Z,18.50
2018-03-27T08:52:19.526Z,16.00
2018-03-27T08:53:19.533Z,19.60
2018-03-27T08:54:19.538Z,18.90
2018-03-27T08:55:19.542Z,19.10
2018-03-27T08:56:19.549Z,22.80
2018-03-27T08:57:19.554Z,20.00
2018-03-27T08:58:19.565Z,18.50
2018-03-27T08:59:19.566Z,17.50
2018-03-27T09:00:19.581Z,17.50
2018-03-27T09:01:19.574Z,17.60
2018-03-27T09:02:19.582Z,19.20
2018-03-27T09:03:19.592Z,19.70
2018-03-27T09:04:19.591Z,16.40
2018-03-27T09:05:19.656Z,16.70
2018-03-27T09:06:19.629Z,17.70
2018-03-27T09:07:19.610Z,16.70
2018-03-27T09:08:19.623Z,19.90
2018-03-27T09:09:19.621Z,16.80
2018-03-27T09:10:19.630Z,18.00
2018-03-27T09:11:19.631Z,18.10
2018-03-27T09:12:19.644Z,15.60
2018-03-27T09:13:19.648Z,19.10
2018-03-27T09:14:19.658Z,17.00
2018-03-27T09:15:19.660Z,16.70
2018-03-27T09:16:19.667Z,17.10
2018-03-27T09:17:19.671Z,18.00
2018-03-27T09:18:19.680Z,14.70
2018-03-27T09:19:19.681Z,16.60
2018-03-27T09:20:19.693Z,15.40
2018-03-27T09:21:19.695Z,15.80
2018-03-27T09:22:19.707Z,13.90
2018-03-27T09:23:19.763Z,15.20
2018-03-27T09:24:19.720Z,14.40
2018-03-27T09:25:19.721Z,15.70
2018-03-27T09:26:19.729Z,13.20
2018-03-27T09:27:19.743Z,12.90
2018-03-27T09:28:19.741Z,13.80
2018-03-27T09:29:19.748Z,13.10
2018-03-27T09:30:19.757Z,16.60
2018-03-27T09:31:19.767Z,15.50
2018-03-27T09:32:19.783Z,14.10
2018-03-27T09:33:19.781Z,13.90
2018-03-27T09:34:19.789Z,12.20
2018-03-27T09:35:19.794Z,11.10
2018-03-27T09:36:19.804Z,14.30
2018-03-27T09:37:19.804Z,12.80
2018-03-27T09:38:19.811Z,12.40
2018-03-27T09:39:19.825Z,12.70
2018-03-27T09:40:19.843Z,12.40
2018-03-27T09:41:19.839Z,12.80
2018-03-27T09:42:19.846Z,12.90
2018-03-27T09:43:19.852Z,12.30
2018-03-27T09:44:19.863Z,13.20
2018-03-27T09:45:19.864Z,12.80
2018-03-27T09:46:19.880Z,10.80
2018-03-27T09:47:19.877Z,12.40
2018-03-27T09:48:19.888Z,12.40
2018-03-27T09:49:19.893Z,12.80
2018-03-27T09:50:19.900Z,13.20
2018-03-27T09:51:19.915Z,12.00
2018-03-27T09:52:19.920Z,12.80
2018-03-27T09:53:19.922Z,12.10
2018-03-27T09:54:19.952Z,13.00
2018-03-27T09:55:19.944Z,13.60
2018-03-27T09:56:19.948Z,13.30
2018-03-27T09:57:19.952Z,13.90
2018-03-27T09:58:19.967Z,12.60
2018-03-27T09:59:19.969Z,12.60
2018-03-27T10:00:19.978Z,12.50
2018-03-27T10:01:19.990Z,13.00
2018-03-27T10:02:19.992Z,12.20
2018-03-27T10:03:20.003Z,13.00
2018-03-27T10:04:20.016Z,12.70
2018-03-27T10:05:20.022Z,13.80
2018-03-27T10:06:20.024Z,14.40
2018-03-27T10:07:20.032Z,13.30
2018-03-27T10:08:20.044Z,13.80
2018-03-27T10:09:20.046Z,12.30
2018-03-27T10:10:20.056Z,12.90
2018-03-27T10:11:20.070Z,13.40
2018-03-27T10:12:20.072Z,11.00
2018-03-27T10:13:20.079Z,11.40
2018-03-27T10:14:20.097Z,11.20
2018-03-27T10:15:20.094Z,12.40
2018-03-27T10:16:20.102Z,11.70
2018-03-27T10:17:20.111Z,13.20
2018-03-27T10:18:20.120Z,13.10
2018-03-27T10:19:20.133Z,12.30
2018-03-27T10:20:20.143Z,13.30
2018-03-27T10:21:20.152Z,14.50
2018-03-27T10:22:20.153Z,12.20
2018-03-27T10:23:20.170Z,16.10
2018-03-27T10:24:20.174Z,15.90
2018-03-27T10:25:20.177Z,14.40
2018-03-27T10:26:20.192Z,14.50
2018-03-27T10:27:20.259Z,14.00
2018-03-27T10:28:20.201Z,12.90
2018-03-27T10:29:20.211Z,12.60
2018-03-27T10:30:20.224Z,11.90
2018-03-27T10:31:20.232Z,13.40
2018-03-27T10:32:20.234Z,12.70
2018-03-27T10:33:20.242Z,12.20
2018-03-27T10:34:20.251Z,13.80
2018-03-27T10:35:20.259Z,13.40
2018-03-27T10:36:20.265Z,13.80
2018-03-27T10:37:20.273Z,13.00
2018-03-27T10:38:20.282Z,12.40
2018-03-27T10:39:20.293Z,11.90
2018-03-27T10:40:20.341Z,13.00
2018-03-27T10:41:20.303Z,11.20
2018-03-27T10:42:20.318Z,11.20
2018-03-27T10:43:20.326Z,11.80
2018-03-27T10:44:20.334Z,13.50
2018-03-27T10:45:20.340Z,11.40
2018-03-27T10:46:20.348Z,11.20
2018-03-27T10:47:20.352Z,12.50
2018-03-27T10:48:20.367Z,12.40
2018-03-27T10:49:20.374Z,11.20
2018-03-27T10:50:20.384Z,12.80
2018-03-27T10:51:20.395Z,11.90
2018-03-27T10:52:20.397Z,11.00
2018-03-27T10:53:20.408Z,10.30
2018-03-27T10:54:20.419Z,13.60
2018-03-27T10:55:20.421Z,14.10
2018-03-27T10:56:20.430Z,10.70
2018-03-27T10:57:20.443Z,12.80
2018-03-27T10:58:20.452Z,9.30
2018-03-27T10:59:20.456Z,12.50
2018-03-27T11:00:20.463Z,10.50
2018-03-27T11:01:20.472Z,12.80
2018-03-27T11:02:20.488Z,9.40
2018-03-27T11:03:20.490Z,11.90
2018-03-27T11:04:20.496Z,11.70
2018-03-27T11:05:20.505Z,9.70
2018-03-27T11:06:20.519Z,9.90
2018-03-27T11:07:20.528Z,9.90
2018-03-27T11:08:20.535Z,10.60
2018-03-27T11:09:20.546Z,11.40
2018-03-27T11:10:20.552Z,11.10
2018-03-27T11:11:20.564Z,12.00
2018-03-27T11:12:20.564Z,9.90
2018-03-27T11:13:20.577Z,12.00
2018-03-27T11:14:20.580Z,10.80
2018-03-27T11:15:20.596Z,12.30
2018-03-27T11:16:20.600Z,11.70
2018-03-27T11:17:20.606Z,10.80
2018-03-27T11:18:20.620Z,13.60
2018-03-27T11:19:20.628Z,11.40
2018-03-27T11:20:20.666Z,11.10
2018-03-27T11:21:20.639Z,10.50
2018-03-27T11:22:20.652Z,11.90
2018-03-27T11:23:20.706Z,11.10
2018-03-27T11:24:20.665Z,13.00
2018-03-27T11:25:20.672Z,12.40
2018-03-27T11:26:20.688Z,13.70
2018-03-27T11:27:20.696Z,11.60
2018-03-27T11:28:20.699Z,11.30
2018-03-27T11:29:20.732Z,11.00
2018-03-27T11:30:20.724Z,11.40
2018-03-27T11:31:20.724Z,14.90
2018-03-27T11:32:20.731Z,11.50
2018-03-27T11:33:20.740Z,12.60
2018-03-27T11:34:20.755Z,14.20
2018-03-27T11:35:20.764Z,12.10
2018-03-27T11:36:20.763Z,11.50
2018-03-27T11:37:20.773Z,12.40
2018-03-27T11:38:20.779Z,13.20
2018-03-27T11:39:20.790Z,12.60
2018-03-27T11:40:20.802Z,12.00
2018-03-27T11:41:20.804Z,10.20
2018-03-27T11:42:20.823Z,10.10
2018-03-27T11:43:20.821Z,11.50
2018-03-27T11:44:20.835Z,10.30
2018-03-27T11:45:20.842Z,13.20
2018-03-27T11:46:20.847Z,13.00
2018-03-27T11:47:20.875Z,11.20
2018-03-27T11:48:20.905Z,11.70
2018-03-27T11:49:20.877Z,12.70
2018-03-27T11:50:20.879Z,11.40
2018-03-27T11:51:20.890Z,9.90
2018-03-27T11:52:20.894Z,12.60
2018-03-27T11:53:20.903Z,13.70
2018-03-27T11:54:20.920Z,12.40
2018-03-27T11:55:20.925Z,12.30
2018-03-27T11:56:20.927Z,14.80
2018-03-27T11:57:20.934Z,12.50
2018-03-27T11:58:20.942Z,12.80
2018-03-27T11:59:20.951Z,10.80
2018-03-27T12:00:20.958Z,13.50
2018-03-27T12:01:20.966Z,10.10
2018-03-27T12:02:20.974Z,12.70
2018-03-27T12:03:20.988Z,11.30
2018-03-27T12:04:20.989Z,11.50
2018-03-27T12:05:20.996Z,12.00
2018-03-27T12:06:21.004Z,11.60
2018-03-27T12:07:21.015Z,13.80
2018-03-27T12:08:21.025Z,13.80
2018-03-27T12:09:21.028Z,11.60
2018-03-27T12:10:21.037Z,11.70
2018-03-27T12:11:21.050Z,13.00
2018-03-27T12:12:21.053Z,13.10
2018-03-27T12:13:21.065Z,11.70
2018-03-27T12:14:21.076Z,13.60
2018-03-27T12:15:21.126Z,12.20
2018-03-27T12:16:21.088Z,11.80
2018-03-27T12:17:21.097Z,12.60
2018-03-27T12:18:21.101Z,14.00
2018-03-27T12:19:21.107Z,12.30
2018-03-27T12:20:21.113Z,11.10
2018-03-27T12:21:21.139Z,12.10
2018-03-27T12:22:21.136Z,12.40
2018-03-27T12:23:21.146Z,11.00
2018-03-27T12:24:21.152Z,10.90
2018-03-27T12:25:21.156Z,15.10
2018-03-27T12:26:21.161Z,8.50
2018-03-27T12:27:21.171Z,9.40
2018-03-27T12:28:21.187Z,12.40
2018-03-27T12:29:21.193Z,13.90
2018-03-27T12:30:21.202Z,10.50
2018-03-27T12:31:21.205Z,10.30
2018-03-27T12:32:22.210Z,12.40
2018-03-27T12:33:21.221Z,10.80
2018-03-27T12:34:21.228Z,13.00
2018-03-27T12:35:21.238Z,12.30
2018-03-27T12:36:21.244Z,13.20
2018-03-27T12:37:21.261Z,12.20
2018-03-27T12:38:21.269Z,13.90
2018-03-27T12:39:21.280Z,13.10
2018-03-27T12:40:21.277Z,13.20
2018-03-27T12:41:21.287Z,14.00
2018-03-27T12:42:21.314Z,13.20
2018-03-27T12:43:21.304Z,11.50
2018-03-27T12:44:21.317Z,12.20
2018-03-27T12:45:21.319Z,10.80
2018-03-27T12:46:21.330Z,12.20
2018-03-27T12:47:21.338Z,13.40
2018-03-27T12:48:21.352Z,13.30
2018-03-27T12:49:21.358Z,13.70
2018-03-27T12:50:21.364Z,12.30
2018-03-27T12:51:21.372Z,15.40
2018-03-27T12:52:21.379Z,12.10